Pescara - LIBP

Metar : METAR LIBP 221420Z AUTO 08008KT 9999 OVC075/// 15/09 Q1017=

Taf : TAF LIBP 221100Z 2212/2312 09010KT 9999 SCT040 TEMPO 2212/2216 RA BECMG 2218/2220 33007KT=

 Scopri come leggere i bollettini codificati...


Storico

LIBP 221420Z AUTO 08008KT 9999 OVC075/// 15/09 Q1017
LIBP 221350Z AUTO 07008KT 030V090 9999 OVC072/// 15/09 Q1017
LIBP 221320Z AUTO 06009KT 9999 OVC072/// 16/09 Q1017
LIBP 221250Z AUTO 08009KT 9999 FEW076/// BKN130/// 16/08 Q1018
LIBP 221220Z AUTO 08008KT 040V130 9999 SCT074/// BKN120/// BKN130/// 16/09 Q1018
LIBP 221150Z AUTO 06008KT 9999 FEW043/// BKN130/// 16/10 Q1018
LIBP 221120Z AUTO 06007KT 020V110 9999 FEW035/// SCT077/// BKN130/// 16/10 Q1018
LIBP 221050Z AUTO 05007KT 020V080 9999 BKN041/// 16/10 Q1018
LIBP 221020Z AUTO 07008KT 9999 BKN042/// BKN075/// 15/09 Q1018
LIBP 220950Z AUTO 06009KT 9999 FEW050/// BKN077/// 15/09 Q1018
LIBP 220920Z AUTO 09007KT 050V150 9999 SCT050/// BKN079/// BKN087/// 16/07 Q1018
LIBP 220850Z AUTO 03005KT 340V060 9999 FEW051/// BKN086/// BKN140/// 16/08 Q1018
LIBP 220820Z AUTO VRB03KT 9999 SCT058/// BKN140/// 16/07 Q1018
LIBP 220750Z AUTO VRB01KT 9999 BKN057/// 15/07 Q1018
LIBP 220720Z AUTO VRB02KT 9999 OVC057/// 14/09 Q1019
LIBP 220650Z AUTO VRB01KT 9999 OVC057/// 13/09 Q1018
LIBP 220620Z AUTO VRB01KT 9999 BKN057/// 12/09 Q1018
LIBP 220550Z AUTO VRB01KT 9999 FEW053/// OVC061/// 12/09 Q1018
LIBP 220520Z AUTO VRB01KT 9999 SCT071/// BKN100/// BKN150/// 11/08 Q1018
LIBP 220450Z AUTO VRB02KT 9999 FEW064/// OVC100/// 10/08 Q1018
LIBP 220420Z AUTO 25003KT 9999 BKN061/// OVC087/// 11/08 Q1018
LIBP 220350Z AUTO 23003KT 9999 BKN060/// BKN091/// 10/08 Q1018
LIBP 220320Z AUTO 22003KT 9999 OVC090/// 10/08 Q1018
LIBP 220250Z AUTO 21003KT 9999 FEW060/// BKN097/// 10/08 Q1018
LIBP 220220Z AUTO 28003KT 9999 FEW098/// OVC110/// 10/08 Q1018
LIBP 220150Z AUTO 22004KT 9999 FEW100/// BKN120/// 10/08 Q1018
LIBP 220120Z AUTO 25003KT 9999 SCT100/// BKN120/// 11/08 Q1018
LIBP 220050Z AUTO 25004KT 9999 OVC100/// 10/08 Q1018
LIBP 220020Z AUTO 23003KT 9999 OVC110/// 10/08 Q1018
LIBP 212350Z AUTO 25003KT 9999 OVC110/// 11/08 Q1018
LIBP 212320Z AUTO 24005KT 9999 OVC130/// 11/08 Q1018
LIBP 212250Z AUTO 23006KT 9999 BKN110/// 11/08 Q1018
LIBP 212220Z AUTO 21005KT 9999 BKN120/// BKN150/// 10/08 Q1018
LIBP 212150Z AUTO 24004KT 9999 BKN110/// BKN170/// 10/08 Q1018
LIBP 212120Z AUTO 23004KT 9999 BKN120/// BKN190/// 10/08 Q1018
LIBP 212050Z AUTO 22006KT 9999 BKN120/// 10/08 Q1019
LIBP 212020Z AUTO 24002KT 9999 BKN120/// BKN220/// 12/09 Q1019
LIBP 211950Z AUTO 04003KT 9999 SCT120/// BKN230/// 12/09 Q1019
LIBP 211920Z AUTO 05004KT 9999 BKN230/// 12/08 Q1019
LIBP 211850Z AUTO 04004KT 9999 BKN230/// 13/08 Q1018
LIBP 211820Z AUTO 05003KT 9999 BKN230/// 13/08 Q1018
LIBP 211750Z AUTO 08006KT 9999 NCD 14/08 Q1018
LIBP 211720Z AUTO 08006KT 050V110 9999 NCD 14/08 Q1018
LIBP 211650Z AUTO 09007KT 050V110 9999 NCD 15/09 Q1018
LIBP 211620Z AUTO 07008KT 9999 NCD 15/09 Q1018
LIBP 211550Z AUTO 07009KT 9999 NCD 16/09 Q1018
LIBP 211520Z AUTO 08011KT 9999 NCD 17/08 Q1017
LIBP 211450Z AUTO 08010KT 050V120 9999 NCD 17/09 Q1017
LIBP 211420Z AUTO 08011KT 9999 NCD 17/07 Q1017
LIBP 211350Z AUTO 09012KT 9999 NCD 18/06 Q1018
LIBP 211320Z AUTO 10011KT 9999 NCD 18/04 Q1018
LIBP 211250Z AUTO 10014KT 070V130 9999 NCD 18/06 Q1018
LIBP 211220Z AUTO 09014KT 9999 NCD 18/07 Q1018
LIBP 211150Z AUTO 10014KT 9999 FEW200/// 17/06 Q1018
LIBP 211120Z AUTO 09013KT 9999 SCT220/// 17/06 Q1018
LIBP 211050Z AUTO 09012KT 9999 NCD 17/06 Q1019
LIBP 211020Z AUTO 10010KT 070V150 9999 NCD 17/06 Q1019
LIBP 210950Z AUTO 09010KT 9999 NCD 17/06 Q1019
LIBP 210920Z AUTO 08009KT 9999 NCD 17/07 Q1019
LIBP 210850Z AUTO 06008KT 9999 NCD 16/08 Q1019
LIBP 210820Z AUTO 05006KT 010V080 9999 NCD 15/07 Q1019
LIBP 210750Z AUTO VRB02KT 9999 NCD 16/06 Q1019
LIBP 210720Z AUTO VRB02KT 9999 NCD 15/06 Q1019
LIBP 210650Z AUTO 24003KT 150V280 9999 NCD 12/06 Q1019
LIBP 210620Z AUTO 22002KT 9999 NCD 10/05 Q1019
LIBP 210550Z AUTO VRB02KT 9999 NCD 08/05 Q1019
LIBP 210520Z AUTO 21003KT 9999 NCD 06/05 Q1018
LIBP 210450Z AUTO 21004KT 9999 NCD 04/03 Q1018
LIBP 210420Z AUTO 22004KT 9999 NCD 04/02 Q1018
LIBP 210350Z AUTO 23005KT 9999 NCD 04/03 Q1018
LIBP 210320Z AUTO 22005KT 9999 NCD 04/02 Q1018
LIBP 210250Z AUTO 23004KT 9999 NCD 04/03 Q1018
LIBP 210220Z AUTO 24004KT 9999 NCD 05/03 Q1018
LIBP 210150Z AUTO 22005KT 9999 NCD 04/03 Q1018
LIBP 210120Z AUTO 22004KT 9999 NCD 05/03 Q1017
LIBP 210050Z AUTO 22005KT 9999 NCD 04/03 Q1018
LIBP 210020Z AUTO 22004KT 9999 NCD 05/03 Q1018
LIBP 202350Z AUTO 21005KT 9999 NCD 05/03 Q1018
LIBP 202320Z AUTO 20004KT 9999 NCD 06/03 Q1018
LIBP 202250Z AUTO 23004KT 9999 FEW089/// 06/04 Q1018
LIBP 202220Z AUTO 20006KT 9999 NCD 06/04 Q1018
LIBP 202150Z AUTO 21004KT 9999 NCD 06/04 Q1018
LIBP 202120Z AUTO 22003KT 9999 NCD 07/04 Q1018
LIBP 202050Z AUTO 23003KT 9999 NCD 08/04 Q1018
LIBP 202020Z AUTO 21005KT 9999 FEW075/// 08/04 Q1018
LIBP 201950Z AUTO 22004KT 9999 FEW076/// SCT190/// 09/05 Q1017
LIBP 201920Z AUTO VRB01KT 9999 NCD 10/05 Q1017
LIBP 201850Z AUTO 30002KT 9999 SCT180/// 10/05 Q1017
LIBP 201820Z AUTO VRB01KT 9999 BKN190/// 12/05 Q1016
LIBP 201750Z AUTO 13003KT 100V160 9999 NCD 13/04 Q1016
LIBP 201720Z AUTO 11003KT 070V140 9999 FEW080/// 13/04 Q1016
LIBP 201650Z AUTO 11004KT 9999 NCD 14/04 Q1016
LIBP 201620Z AUTO 10005KT 9999 NCD 14/04 Q1016
LIBP 201550Z AUTO 06007KT 9999 NCD 14/05 Q1016
LIBP 201520Z AUTO 08007KT 050V110 9999 NCD 16/05 Q1015
LIBP 201450Z AUTO 06007KT 030V090 9999 FEW190/// 16/03 Q1015
LIBP 201420Z AUTO 05006KT 010V100 9999 NCD 16/04 Q1015
LIBP 201350Z AUTO 04008KT 360V090 9999 NCD 16/05 Q1016
LIBP 201320Z AUTO 05008KT 9999 NCD 15/05 Q1016
LIBP 201250Z AUTO 06009KT 9999 NCD 15/05 Q1016
LIBP 201220Z AUTO 06009KT 010V080 9999 NCD 15/04 Q1016
LIBP 201150Z AUTO 06009KT 9999 NCD 16/04 Q1016
LIBP 201120Z AUTO 04009KT 010V070 9999 NCD 15/03 Q1016
LIBP 201050Z AUTO 02009KT 340V070 9999 NCD 15/04 Q1016
LIBP 201020Z AUTO 04010KT 350V070 9999 NCD 15/03 Q1016
LIBP 200950Z AUTO 04008KT 9999 SCT064/// 15/03 Q1016
LIBP 200920Z AUTO 04007KT 9999 BKN065/// 15/03 Q1016
LIBP 200850Z AUTO VRB05KT 9999 SCT051/// BKN071/// BKN091/// 15/03 Q1016
LIBP 200820Z AUTO VRB03KT 9999 SCT050/// BKN076/// BKN091/// 15/02 Q1016
LIBP 200750Z AUTO 22003KT 150V290 9999 FEW080/// 14/06 Q1016
LIBP 200720Z AUTO 23003KT 200V300 9999 NCD 12/06 Q1016
LIBP 200650Z AUTO 23006KT 9999 NCD 10/06 Q1016
LIBP 200620Z AUTO 24006KT 9999 NCD 09/06 Q1016
LIBP 200550Z AUTO 22005KT 9999 NCD 07/05 Q1016
LIBP 200520Z AUTO 20005KT 9999 NCD 05/05 Q1016
LIBP 200450Z AUTO 21006KT 9999 NCD 03/03 Q1016
LIBP 200420Z AUTO 21005KT 9999 NCD 02/02 Q1015
LIBP 200350Z AUTO 22005KT 9999 NCD 02/02 Q1015
LIBP 200320Z AUTO 21005KT 9999 FEW180/// 03/03 Q1015
LIBP 200250Z AUTO 21006KT 9999 SCT180/// 03/03 Q1015
LIBP 200220Z AUTO 22005KT 9999 NCD 03/03 Q1015
LIBP 200150Z AUTO 21005KT 9999 NCD 04/04 Q1015
LIBP 200120Z AUTO VRB02KT 9999 NCD 03/03 Q1015
LIBP 200050Z AUTO 22006KT 9999 NCD 04/04 Q1015
LIBP 200020Z AUTO 21004KT 9999 NCD 05/05 Q1015
LIBP 192350Z AUTO 20002KT 9999 NCD 05/05 Q1015
LIBP 192320Z AUTO 27002KT 9999 NCD 06/06 Q1016
LIBP 192250Z AUTO 24003KT 200V280 9999 NCD 07/07 Q1016
LIBP 192220Z AUTO 22003KT 9999 NCD 08/06 Q1016
LIBP 192150Z AUTO 20003KT 9999 NCD 08/06 Q1015
LIBP 192120Z AUTO 23003KT 9999 FEW076/// 09/06 Q1015
LIBP 192050Z AUTO 24003KT 9999 BKN073/// 09/06 Q1016
LIBP 192020Z AUTO 25003KT 9999 SCT072/// 09/06 Q1016
LIBP 191950Z AUTO 26003KT 9999 FEW140/// 10/06 Q1016
LIBP 191920Z AUTO 22006KT 9999 BKN061/// 10/07 Q1016
LIBP 191850Z AUTO 25004KT 220V310 9999 OVC056/// 11/07 Q1015
LIBP 191820Z AUTO 27004KT 9999 BKN056/// 11/07 Q1015
LIBP 191720Z AUTO 32002KT 9999 SCT060/// 12/06 Q1015
LIBP 191650Z AUTO 32003KT 280V360 9999 FEW050/// SCT060/// BKN110/// 12/05 Q1015
LIBP 191620Z AUTO VRB02KT 9999 SCT058/// BKN082/// 12/06 Q1015
LIBP 191550Z AUTO 01005KT 330V040 9999 BKN080/// 13/06 Q1014
LIBP 191520Z AUTO 03006KT 330V080 9999 SCT077/// 13/06 Q1014
LIBP 191450Z AUTO 03006KT 350V060 9999 FEW077/// BKN096/// 13/05 Q1014
LIBP 191420Z AUTO 03006KT 350V070 9999 BKN100/// 14/05 Q1014
LIBP 191350Z AUTO 04004KT 320V070 9999 BKN080/// 13/05 Q1014
LIBP 191320Z AUTO 03008KT 360V060 9999 BKN072/// 13/05 Q1015
LIBP 191250Z AUTO 05010KT 9999 FEW047/// 14/05 Q1015
LIBP 191220Z AUTO 04008KT 360V070 9999 BKN044/// 13/04 Q1015
LIBP 191150Z AUTO 05006KT 010V080 9999 FEW039/// SCT046/// BKN096/// 13/05 Q1015
LIBP 191120Z AUTO 04005KT 350V080 9999 SCT035/// SCT042/// BKN066/// 13/05 Q1015
LIBP 191050Z AUTO 03007KT 330V050 9999 SCT042/// BKN071/// 13/04 Q1015
LIBP 191020Z AUTO 03008KT 360V070 9999 SCT037/// BKN072/// BKN100/// 13/04 Q1015
LIBP 190950Z AUTO 03007KT 290V060 9999 FEW035/// SCT068/// 13/05 Q1015
LIBP 190920Z AUTO 03008KT 9999 SCT035/// BKN063/// 13/05 Q1015
LIBP 190850Z AUTO 36006KT 320V040 9999 BKN052/// 12/05 Q1015
LIBP 190820Z AUTO VRB01KT 9999 BKN032/// 12/07 Q1015
LIBP 190750Z AUTO 24004KT 200V270 9999 FEW040/// BKN069/// 11/08 Q1015
LIBP 190720Z AUTO 22006KT 9999 FEW032/// BKN060/// 10/08 Q1015
LIBP 190650Z AUTO 23005KT 9999 BKN030/// OVC065/// 09/08 Q1015
LIBP 190620Z AUTO 23006KT 9000 -RA BKN027 OVC057 09/08 Q1015 REDZ
LIBP 190550Z AUTO 23006KT 9999 -RA OVC051/// 09/08 Q1015
LIBP 190520Z AUTO 24005KT 9999 -RA OVC049/// 08/07 Q1015
LIBP 190450Z AUTO 23005KT 8000 -DZ OVC041/// 08/08 Q1015
LIBP 190420Z AUTO 23004KT 7000 -RA OVC045/// 08/08 Q1015
LIBP 190350Z AUTO 22003KT 6000 -DZ OVC044/// 08/07 Q1015
LIBP 190320Z AUTO 24004KT 8000 -RA FEW039/// BKN053/// BKN076/// 08/07 Q1015
LIBP 190250Z AUTO 21005KT 7000 FEW038/// BKN082/// OVC100/// 08/07 Q1015
LIBP 190220Z AUTO VRB01KT 6000 OVC079/// 09/08 Q1015
LIBP 190150Z AUTO 24003KT 8000 OVC077/// 09/08 Q1015
LIBP 190120Z AUTO 23003KT 9000 OVC078/// 09/08 Q1015
LIBP 190050Z AUTO 23003KT 6000 OVC072/// 09/08 Q1015
LIBP 190020Z AUTO 24003KT 7000 OVC072/// 09/08 Q1016
LIBP 182350Z AUTO 24003KT 5000 BR OVC068/// 09/08 Q1016
LIBP 182320Z AUTO 23003KT 5000 BR OVC068/// 09/08 Q1016
LIBP 182250Z AUTO 23003KT 6000 OVC067/// 09/08 Q1016
LIBP 182220Z AUTO 25004KT 7000 -RA OVC065/// 09/08 Q1016
LIBP 182150Z AUTO 22003KT 5000 -RA OVC059/// 09/08 Q1016
LIBP 182120Z AUTO 21004KT 8000 -RA OVC062/// 09/08 Q1017

Informazioni elaborate utilizzando, tra l’altro, dati e prodotti del Servizio Meteorologico dell’Aeronautica Militare pubblicati sul sito www.meteoam.it e della National Oceanic and Atmospheric Administration (NOAA)

Ultimi caricamenti...


EC-NAB Boeing 737-800 Albastar

 


EC-NAB Boeing 737-800 Albastar

 


9H-QAA Boeing 737-8AS Malta Air (Ryanair)

Questo sito non utilizza cookie di profilazione. Il sito utilizza cookie tecnici, di analisi anonima di prima parte e di terze parti per servizi di social network.